createdAt,value
2017-06-20T12:25:01.970Z,30.62
2017-06-20T12:26:10.656Z,30.6
2017-06-20T12:27:19.299Z,30.66
2017-06-20T12:28:27.883Z,30.73
2017-06-20T12:29:36.954Z,30.77
2017-06-20T12:30:45.913Z,30.84
2017-06-20T12:31:54.859Z,30.73
2017-06-20T12:33:04.183Z,30.78
2017-06-20T12:34:13.084Z,30.85
2017-06-20T12:35:21.750Z,30.96
2017-06-20T12:36:30.665Z,30.93
2017-06-20T12:37:39.982Z,31
2017-06-20T12:38:48.819Z,31.03
2017-06-20T12:39:58.037Z,31.07
2017-06-20T12:41:06.645Z,31.16
2017-06-20T12:42:15.234Z,31.1
2017-06-20T12:43:25.227Z,31.12
2017-06-20T12:44:34.132Z,31.1
2017-06-20T12:45:43.522Z,31.03
2017-06-20T12:46:52.746Z,31.07
2017-06-20T12:48:01.421Z,31.01
2017-06-20T12:49:10.337Z,31.12
2017-06-20T12:50:19.747Z,31.16
2017-06-20T12:51:28.648Z,31.22
2017-06-20T12:52:37.683Z,31.28
2017-06-20T12:53:46.904Z,31.38
2017-06-20T12:54:55.807Z,31.53
2017-06-20T12:56:04.393Z,31.56
2017-06-20T12:57:12.988Z,31.59
2017-06-20T12:58:21.904Z,31.7
2017-06-20T12:59:30.807Z,31.71
2017-06-20T13:00:39.533Z,31.75
2017-06-20T13:01:48.486Z,31.72
2017-06-20T13:02:57.083Z,31.77
2017-06-20T13:04:05.991Z,31.8
2017-06-20T13:05:15.538Z,31.8
2017-06-20T13:06:24.347Z,31.91
2017-06-20T13:07:33.706Z,31.93
2017-06-20T13:08:42.298Z,31.81
2017-06-20T13:09:51.201Z,31.86
2017-06-20T13:11:00.422Z,31.88
2017-06-20T13:12:09.231Z,31.93
2017-06-20T13:13:18.485Z,31.82
2017-06-20T13:14:27.721Z,31.9
2017-06-20T13:15:36.628Z,31.81
2017-06-20T13:16:45.214Z,31.81
2017-06-20T13:17:54.434Z,31.74
2017-06-20T13:19:03.023Z,31.74
2017-06-20T13:20:11.673Z,31.7
2017-06-20T13:21:20.263Z,31.77
2017-06-20T13:22:28.999Z,31.86
2017-06-20T13:23:38.721Z,31.82
2017-06-20T13:24:48.104Z,31.82
2017-06-20T13:25:57.316Z,31.86
2017-06-20T13:27:06.141Z,31.7
2017-06-20T13:28:14.898Z,31.72
2017-06-20T13:29:23.556Z,31.74
2017-06-20T13:30:32.152Z,31.72
2017-06-20T13:31:40.739Z,31.68
2017-06-20T13:32:49.960Z,31.71
2017-06-20T13:33:58.861Z,31.7
2017-06-20T13:35:07.768Z,31.7
2017-06-20T13:36:16.364Z,31.78
2017-06-20T13:37:25.274Z,31.82
2017-06-20T13:38:34.198Z,31.9
2017-06-20T13:39:43.128Z,31.8
2017-06-20T13:40:51.837Z,31.93
2017-06-20T13:42:00.434Z,31.95
2017-06-20T13:43:09.984Z,31.93
2017-06-20T13:44:18.899Z,31.86
2017-06-20T13:45:27.806Z,31.9
2017-06-20T13:46:36.402Z,31.82
2017-06-20T13:47:44.991Z,31.9
2017-06-20T13:48:53.896Z,31.97
2017-06-20T13:50:02.797Z,31.98
2017-06-20T13:51:11.712Z,31.95
2017-06-20T13:52:21.607Z,31.95
2017-06-20T13:53:30.513Z,31.94
2017-06-20T13:54:39.418Z,31.9
2017-06-20T13:55:48.329Z,31.8
2017-06-20T13:56:57.556Z,31.86
2017-06-20T13:58:06.145Z,31.82
2017-06-20T13:59:15.049Z,31.74
2017-06-20T14:00:23.952Z,31.67
2017-06-20T14:01:32.547Z,31.67
2017-06-20T14:02:41.841Z,31.71
2017-06-20T14:03:50.461Z,31.65
2017-06-20T14:04:59.053Z,31.71
2017-06-20T14:06:07.646Z,31.71
2017-06-20T14:07:16.553Z,31.71
2017-06-20T14:08:25.458Z,31.44
2017-06-20T14:09:34.693Z,31.44
2017-06-20T14:10:43.619Z,31.45
2017-06-20T14:11:52.838Z,31.6
2017-06-20T14:13:01.742Z,31.56
2017-06-20T14:14:10.647Z,31.59
2017-06-20T14:15:19.587Z,31.58
2017-06-20T14:16:28.223Z,31.67
2017-06-20T14:17:37.230Z,31.59
2017-06-20T14:18:45.817Z,31.67
2017-06-20T14:19:54.487Z,31.7
2017-06-20T14:21:03.549Z,31.72
2017-06-20T14:22:13.095Z,31.86
2017-06-20T14:23:22.526Z,31.82
2017-06-20T14:24:31.439Z,32
2017-06-20T14:25:40.392Z,31.98
2017-06-20T14:26:48.990Z,31.94
2017-06-20T14:27:57.898Z,31.81
2017-06-20T14:29:07.601Z,31.88
2017-06-20T14:30:16.940Z,31.86
2017-06-20T14:31:25.736Z,31.97
2017-06-20T14:32:34.687Z,31.9
2017-06-20T14:33:43.600Z,31.97
2017-06-20T14:34:53.128Z,31.97
2017-06-20T14:36:02.363Z,32.06
2017-06-20T14:37:11.938Z,32.23
2017-06-20T14:38:21.240Z,32.3
2017-06-20T14:39:30.791Z,32.27
2017-06-20T14:40:39.496Z,32.31
2017-06-20T14:41:49.163Z,32.46
2017-06-20T14:42:57.758Z,32.43
2017-06-20T14:44:07.298Z,32.42
2017-06-20T14:45:16.537Z,32.46
2017-06-20T14:46:26.261Z,32.39
2017-06-20T14:47:34.849Z,32.25
2017-06-20T14:48:44.084Z,32.16
2017-06-20T14:49:53.130Z,32.09
2017-06-20T14:51:02.108Z,32.05
2017-06-20T14:52:11.146Z,31.95
2017-06-20T14:53:20.041Z,31.88
2017-06-20T14:54:28.952Z,31.78
2017-06-20T14:55:37.855Z,31.78
2017-06-20T14:56:46.818Z,31.7
2017-06-20T14:57:56.414Z,31.71
2017-06-20T14:59:05.319Z,31.7
2017-06-20T15:00:14.339Z,31.7
2017-06-20T15:01:23.572Z,31.68
2017-06-20T15:02:32.481Z,31.7
2017-06-20T15:03:41.697Z,31.62
2017-06-20T15:04:50.920Z,31.55
2017-06-20T15:05:59.516Z,31.41
2017-06-20T15:07:08.420Z,31.49
2017-06-20T15:08:17.668Z,31.37
2017-06-20T15:09:26.631Z,31.36
2017-06-20T15:10:35.657Z,31.36
2017-06-20T15:11:44.664Z,31.33
2017-06-20T15:12:53.658Z,31.23
2017-06-20T15:14:02.306Z,31.26
2017-06-20T15:15:11.225Z,31.18
2017-06-20T15:16:19.912Z,31.18
2017-06-20T15:17:28.973Z,31.15
2017-06-20T15:18:37.938Z,31.19
2017-06-20T15:19:46.931Z,31.18
2017-06-20T15:20:55.840Z,31.1
2017-06-20T15:22:06.301Z,31.19
2017-06-20T15:23:15.263Z,31.08
2017-06-20T15:24:24.193Z,31.13
2017-06-20T15:25:32.822Z,31.07
2017-06-20T15:26:41.733Z,31.12
2017-06-20T15:27:50.644Z,31.04
2017-06-20T15:28:59.557Z,30.99
2017-06-20T15:30:09.368Z,31.03
2017-06-20T15:31:18.294Z,30.85
2017-06-20T15:32:27.021Z,30.99
2017-06-20T15:33:36.277Z,30.99
2017-06-20T15:34:45.203Z,30.99
2017-06-20T15:35:54.106Z,31.04
2017-06-20T15:37:02.695Z,30.96
2017-06-20T15:38:11.480Z,30.97
2017-06-20T15:39:20.620Z,30.96
2017-06-20T15:40:29.845Z,30.94
2017-06-20T15:41:38.747Z,30.85
2017-06-20T15:42:47.970Z,30.85
2017-06-20T15:43:56.559Z,30.93
2017-06-20T15:45:05.147Z,30.88
2017-06-20T15:46:14.050Z,30.89
2017-06-20T15:47:23.585Z,30.81
2017-06-20T15:48:32.472Z,30.79
2017-06-20T15:49:41.377Z,30.81
2017-06-20T15:50:50.280Z,30.75
2017-06-20T15:51:59.183Z,30.77
2017-06-20T15:53:08.089Z,30.6
2017-06-20T15:54:16.987Z,30.56
2017-06-20T15:55:26.208Z,30.54
2017-06-20T15:56:35.432Z,30.54
2017-06-20T15:57:44.334Z,30.52
2017-06-20T15:58:52.928Z,30.54
2017-06-20T16:00:01.837Z,30.57
2017-06-20T16:01:11.085Z,30.52
2017-06-20T16:02:20.471Z,30.49
2017-06-20T16:03:29.688Z,30.47
2017-06-20T16:04:38.275Z,30.4
2017-06-20T16:05:46.873Z,30.44
2017-06-20T16:06:55.456Z,30.52
2017-06-20T16:08:04.360Z,30.57
2017-06-20T16:09:13.578Z,30.57
2017-06-20T16:10:22.539Z,30.6
2017-06-20T16:11:31.499Z,30.6
2017-06-20T16:12:41.412Z,30.6
2017-06-20T16:13:49.999Z,30.77
2017-06-20T16:14:58.686Z,30.77
2017-06-20T16:16:07.587Z,30.7
2017-06-20T16:17:17.127Z,30.88
2017-06-20T16:18:26.030Z,30.88
2017-06-20T16:19:34.616Z,30.96
2017-06-20T16:20:43.562Z,30.88
2017-06-20T16:21:52.146Z,31.01
2017-06-20T16:23:00.736Z,30.84
2017-06-20T16:24:09.325Z,30.86
2017-06-20T16:25:18.543Z,30.82
2017-06-20T16:26:27.129Z,30.82
2017-06-20T16:27:36.036Z,30.7
2017-06-20T16:28:44.941Z,30.51
2017-06-20T16:29:54.489Z,30.48
2017-06-20T16:31:03.741Z,30.39
2017-06-20T16:32:12.966Z,30.29
2017-06-20T16:33:22.185Z,30.34
2017-06-20T16:34:31.103Z,30.37
2017-06-20T16:35:40.367Z,30.21
2017-06-20T16:36:48.954Z,30.09
2017-06-20T16:37:58.890Z,30.18
2017-06-20T16:39:08.441Z,30.07
2017-06-20T16:40:17.464Z,30.07
2017-06-20T16:41:26.602Z,30.03
2017-06-20T16:42:35.508Z,29.98
2017-06-20T16:43:44.092Z,29.89
2017-06-20T16:44:53.148Z,29.92
2017-06-20T16:46:01.811Z,29.88
2017-06-20T16:47:10.714Z,29.92
2017-06-20T16:48:19.617Z,29.84
2017-06-20T16:49:28.257Z,29.77
2017-06-20T16:50:37.164Z,29.75
2017-06-20T16:51:45.796Z,29.7
2017-06-20T16:52:55.333Z,29.66
2017-06-20T16:54:04.555Z,29.65
2017-06-20T16:55:13.459Z,29.6
2017-06-20T16:56:22.043Z,29.5
2017-06-20T16:57:30.622Z,29.45
2017-06-20T16:58:39.847Z,29.48
2017-06-20T16:59:48.746Z,29.35
2017-06-20T17:00:57.647Z,29.4
2017-06-20T17:02:06.233Z,29.4
2017-06-20T17:03:15.138Z,29.39
2017-06-20T17:04:24.043Z,29.35
2017-06-20T17:05:33.280Z,29.39
2017-06-20T17:06:42.513Z,29.38
2017-06-20T17:07:51.101Z,29.35
2017-06-20T17:09:00.638Z,29.4
2017-06-20T17:10:09.222Z,29.36
2017-06-20T17:11:17.831Z,29.42
2017-06-20T17:12:27.368Z,29.28
2017-06-20T17:13:36.270Z,29.29
2017-06-20T17:14:45.802Z,29.29
2017-06-20T17:15:54.414Z,29.32
2017-06-20T17:17:03.317Z,29.38
2017-06-20T17:18:12.428Z,29.35
2017-06-20T17:19:21.567Z,29.39
2017-06-20T17:20:30.821Z,29.39
2017-06-20T17:21:40.043Z,29.36
2017-06-20T17:22:48.630Z,29.35
2017-06-20T17:23:57.858Z,29.48
2017-06-20T17:25:07.078Z,29.42
2017-06-20T17:26:15.982Z,29.33
2017-06-20T17:27:24.569Z,29.28
2017-06-20T17:28:33.787Z,29.39
2017-06-20T17:29:42.377Z,29.23
2017-06-20T17:30:50.966Z,29.32
2017-06-20T17:31:59.561Z,29.24
2017-06-20T17:33:08.151Z,29.3
2017-06-20T17:34:17.055Z,29.26
2017-06-20T17:35:25.997Z,29.11
2017-06-20T17:36:34.903Z,29.11
2017-06-20T17:37:44.351Z,29.03
2017-06-20T17:38:53.262Z,28.92
2017-06-20T17:40:02.501Z,28.86
2017-06-20T17:41:11.159Z,28.76
2017-06-20T17:42:20.407Z,28.7
2017-06-20T17:43:29.634Z,28.73
2017-06-20T17:44:38.585Z,28.76
2017-06-20T17:45:47.501Z,28.76
2017-06-20T17:46:56.761Z,28.7
2017-06-20T17:48:05.691Z,28.65
2017-06-20T17:49:14.432Z,28.6
2017-06-20T17:50:23.726Z,28.51
2017-06-20T17:51:32.626Z,28.54
2017-06-20T17:52:41.568Z,28.55
2017-06-20T17:53:50.569Z,28.48
2017-06-20T17:54:59.159Z,28.51
2017-06-20T17:56:08.062Z,28.41
2017-06-20T17:57:17.280Z,28.38
2017-06-20T17:58:25.867Z,28.38
2017-06-20T17:59:35.091Z,28.38
2017-06-20T18:00:43.679Z,28.3
2017-06-20T18:01:52.290Z,28.28
2017-06-20T18:03:00.992Z,28.27
2017-06-20T18:04:09.659Z,28.26
2017-06-20T18:05:18.564Z,28.21
2017-06-20T18:06:27.465Z,28.21
2017-06-20T18:07:36.404Z,28.18
2017-06-20T18:08:46.139Z,28.12
2017-06-20T18:09:54.722Z,28.06
2017-06-20T18:11:03.935Z,28.03
2017-06-20T18:12:13.528Z,28.02
2017-06-20T18:13:22.868Z,27.94
2017-06-20T18:14:31.934Z,28.02
2017-06-20T18:15:40.527Z,27.96
2017-06-20T18:16:49.436Z,27.99
2017-06-20T18:17:58.455Z,27.89
2017-06-20T18:19:08.104Z,27.94
2017-06-20T18:20:17.073Z,27.91
2017-06-20T18:21:26.266Z,27.84
2017-06-20T18:22:35.800Z,27.81
2017-06-20T18:23:44.702Z,27.76
2017-06-20T18:24:53.641Z,27.74
2017-06-20T18:26:02.273Z,27.75
2017-06-20T18:27:11.495Z,27.74
2017-06-20T18:28:20.413Z,27.68
2017-06-20T18:29:29.023Z,27.62
2017-06-20T18:30:38.268Z,27.62
2017-06-20T18:31:47.070Z,27.49
2017-06-20T18:32:55.656Z,27.49
2017-06-20T18:34:04.266Z,27.43
2017-06-20T18:35:13.498Z,27.42
2017-06-20T18:36:22.720Z,27.42
2017-06-20T18:37:31.623Z,27.36
2017-06-20T18:38:40.541Z,27.36
2017-06-20T18:39:49.450Z,27.31
2017-06-20T18:40:58.351Z,27.26
2017-06-20T18:42:07.365Z,27.3
2017-06-20T18:43:16.063Z,27.27
2017-06-20T18:44:24.663Z,27.21
2017-06-20T18:45:33.614Z,27.15
2017-06-20T18:46:42.515Z,27.18
2017-06-20T18:47:51.099Z,27.13
2017-06-20T18:49:00.317Z,27.15
2017-06-20T18:50:09.217Z,27.12
2017-06-20T18:51:18.440Z,27.09
2017-06-20T18:52:27.656Z,27.09
2017-06-20T18:53:36.239Z,27.09
2017-06-20T18:54:45.453Z,27.01
2017-06-20T18:55:54.107Z,26.93
2017-06-20T18:57:02.692Z,27.01
2017-06-20T18:58:11.596Z,26.96
2017-06-20T18:59:20.509Z,26.93
2017-06-20T19:00:29.093Z,26.93
2017-06-20T19:01:37.998Z,27
2017-06-20T19:02:47.258Z,26.9
2017-06-20T19:03:55.862Z,26.9
2017-06-20T19:05:04.781Z,26.84
2017-06-20T19:06:13.691Z,26.82
2017-06-20T19:07:22.275Z,26.84
2017-06-20T19:08:30.866Z,26.82
2017-06-20T19:09:39.769Z,26.75
2017-06-20T19:10:48.666Z,26.71
2017-06-20T19:11:57.890Z,26.61
2017-06-20T19:13:06.469Z,26.64
2017-06-20T19:14:15.715Z,26.57
2017-06-20T19:15:24.347Z,26.53
2017-06-20T19:16:33.147Z,26.53
2017-06-20T19:17:42.041Z,26.45
2017-06-20T19:18:51.028Z,26.35
2017-06-20T19:19:59.685Z,26.32
2017-06-20T19:21:08.958Z,26.24
2017-06-20T19:22:17.542Z,26.2
2017-06-20T19:23:26.366Z,26.22
2017-06-20T19:24:35.342Z,26.16
2017-06-20T19:25:44.116Z,26.16
2017-06-20T19:26:52.727Z,26.11
2017-06-20T19:28:01.948Z,26
2017-06-20T19:29:11.197Z,26
2017-06-20T19:30:20.567Z,25.89
2017-06-20T19:31:29.356Z,25.85
2017-06-20T19:32:38.268Z,25.78
2017-06-20T19:33:47.206Z,25.79
2017-06-20T19:34:56.107Z,25.75
2017-06-20T19:36:05.644Z,25.63
2017-06-20T19:37:14.539Z,25.69
2017-06-20T19:38:23.757Z,25.69
2017-06-20T19:39:32.659Z,25.52
2017-06-20T19:40:41.887Z,25.63
2017-06-20T19:41:51.481Z,25.51
2017-06-20T19:43:00.089Z,25.34
2017-06-20T19:44:08.992Z,25.39
2017-06-20T19:45:18.557Z,25.34
2017-06-20T19:46:27.161Z,25.32
2017-06-20T19:47:36.059Z,25.3
2017-06-20T19:48:44.642Z,25.32
2017-06-20T19:49:53.237Z,25.26
2017-06-20T19:51:02.139Z,25.2
2017-06-20T19:52:11.050Z,25.27
2017-06-20T19:53:20.287Z,25.19
2017-06-20T19:54:29.826Z,25.09
2017-06-20T19:55:39.036Z,25.12
2017-06-20T19:56:48.033Z,25.12
2017-06-20T19:57:56.933Z,24.94
2017-06-20T19:59:05.949Z,24.96
2017-06-20T20:00:14.554Z,24.86
2017-06-20T20:01:23.783Z,24.93
2017-06-20T20:02:32.738Z,24.83
2017-06-20T20:03:41.465Z,24.85
2017-06-20T20:04:50.220Z,24.78
2017-06-20T20:05:59.173Z,24.75
2017-06-20T20:07:08.127Z,24.66
2017-06-20T20:08:17.366Z,24.56
2017-06-20T20:09:26.346Z,24.58
2017-06-20T20:10:35.246Z,24.49
2017-06-20T20:11:44.219Z,24.44
2017-06-20T20:12:53.589Z,24.51
2017-06-20T20:14:02.714Z,24.39
2017-06-20T20:15:11.749Z,24.42
2017-06-20T20:16:21.271Z,24.32
2017-06-20T20:17:30.104Z,24.27
2017-06-20T20:18:38.688Z,24.19
2017-06-20T20:19:47.899Z,24.07
2017-06-20T20:20:56.538Z,24.04
2017-06-20T20:22:05.529Z,24.14
2017-06-20T20:23:14.464Z,24.07
2017-06-20T20:24:23.603Z,23.99
2017-06-20T20:25:32.537Z,24.02
2017-06-20T20:26:41.759Z,23.94
2017-06-20T20:27:50.786Z,23.93
2017-06-20T20:28:59.716Z,23.97
2017-06-20T20:30:08.615Z,23.82
2017-06-20T20:31:17.397Z,23.79
2017-06-20T20:32:26.812Z,23.77
2017-06-20T20:33:35.752Z,23.81
2017-06-20T20:34:44.692Z,23.82
2017-06-20T20:35:53.593Z,23.81
2017-06-20T20:37:02.262Z,23.82
2017-06-20T20:38:11.158Z,23.74
2017-06-20T20:39:19.740Z,23.78
2017-06-20T20:40:28.425Z,23.79
2017-06-20T20:41:37.725Z,23.77
2017-06-20T20:42:46.678Z,23.71
2017-06-20T20:43:55.995Z,23.72
2017-06-20T20:45:04.908Z,23.62
2017-06-20T20:46:13.527Z,23.6
2017-06-20T20:47:22.482Z,23.57
2017-06-20T20:48:31.473Z,23.56
2017-06-20T20:49:40.475Z,23.57
2017-06-20T20:50:49.684Z,23.59
2017-06-20T20:51:58.264Z,23.56
2017-06-20T20:53:07.168Z,23.45
2017-06-20T20:54:15.753Z,23.48
2017-06-20T20:55:25.305Z,23.45
2017-06-20T20:56:33.887Z,23.45
2017-06-20T20:57:42.547Z,23.4
2017-06-20T20:58:51.677Z,23.34
2017-06-20T21:00:00.278Z,23.26
2017-06-20T21:01:09.514Z,23.28
2017-06-20T21:02:18.597Z,23.26
2017-06-20T21:03:27.493Z,23.25
2017-06-20T21:04:36.707Z,23.22
2017-06-20T21:05:45.289Z,23.12
2017-06-20T21:06:54.499Z,23.12
2017-06-20T21:08:03.081Z,23.07
2017-06-20T21:09:11.980Z,23.09
2017-06-20T21:10:21.005Z,23.1
2017-06-20T21:11:29.930Z,23.09
2017-06-20T21:12:38.885Z,22.99
2017-06-20T21:13:47.465Z,22.92
2017-06-20T21:14:56.436Z,23.03
2017-06-20T21:16:05.137Z,22.96
2017-06-20T21:17:14.130Z,22.91
2017-06-20T21:18:22.824Z,22.86
2017-06-20T21:19:31.725Z,22.96
2017-06-20T21:20:40.639Z,22.81
2017-06-20T21:21:49.540Z,22.82
2017-06-20T21:22:58.701Z,22.81
2017-06-20T21:24:07.913Z,22.76
2017-06-20T21:25:16.492Z,22.79
2017-06-20T21:26:25.075Z,22.7
2017-06-20T21:27:33.659Z,22.66
2017-06-20T21:28:42.239Z,22.66
2017-06-20T21:29:51.134Z,22.66
2017-06-20T21:30:59.711Z,22.64
2017-06-20T21:32:08.927Z,22.63
2017-06-20T21:33:17.831Z,22.54
2017-06-20T21:34:26.490Z,22.57
2017-06-20T21:35:35.067Z,22.49
2017-06-20T21:36:43.648Z,22.48
2017-06-20T21:37:52.859Z,22.46
2017-06-20T21:39:01.784Z,22.45
2017-06-20T21:40:10.363Z,22.45
2017-06-20T21:41:19.270Z,22.38
2017-06-20T21:42:28.166Z,22.46
2017-06-20T21:43:37.060Z,22.39
2017-06-20T21:44:45.640Z,22.42
2017-06-20T21:45:54.534Z,22.3
2017-06-20T21:47:03.803Z,22.31
2017-06-20T21:48:12.696Z,22.33
2017-06-20T21:49:21.353Z,22.23
2017-06-20T21:50:30.916Z,22.2
2017-06-20T21:51:39.864Z,22.24
2017-06-20T21:52:48.443Z,22.2
2017-06-20T21:53:57.025Z,22.18
2017-06-20T21:55:06.242Z,22.18
2017-06-20T21:56:16.092Z,22.15
2017-06-20T21:57:24.674Z,22.11
2017-06-20T21:58:33.574Z,22.09
2017-06-20T21:59:42.152Z,22.15
2017-06-20T22:00:51.052Z,21.97
2017-06-20T22:01:59.634Z,22.08
2017-06-20T22:03:08.215Z,22
2017-06-20T22:04:16.796Z,21.94
2017-06-20T22:05:26.007Z,21.96
2017-06-20T22:06:35.218Z,21.93
2017-06-20T22:07:44.113Z,21.83
2017-06-20T22:08:53.012Z,21.77
2017-06-20T22:10:01.595Z,21.77
2017-06-20T22:11:10.493Z,21.77
2017-06-20T22:12:19.083Z,21.74
2017-06-20T22:13:27.986Z,21.7
2017-06-20T22:14:37.198Z,21.74
2017-06-20T22:15:46.092Z,21.7
2017-06-20T22:16:54.667Z,21.73
2017-06-20T22:18:03.562Z,21.64
2017-06-20T22:19:12.776Z,21.62
2017-06-20T22:20:21.671Z,21.56
2017-06-20T22:21:30.248Z,21.48
2017-06-20T22:22:38.863Z,21.45
2017-06-20T22:23:48.082Z,21.51
2017-06-20T22:24:56.974Z,21.51
2017-06-20T22:26:05.870Z,21.48
2017-06-20T22:27:14.453Z,21.48
2017-06-20T22:28:23.345Z,21.48
2017-06-20T22:29:32.244Z,21.43
2017-06-20T22:30:41.138Z,21.43
2017-06-20T22:31:50.032Z,21.37
2017-06-20T22:32:58.930Z,21.31
2017-06-20T22:34:07.509Z,21.23
2017-06-20T22:35:16.766Z,21.22
2017-06-20T22:36:25.663Z,21.27
2017-06-20T22:37:34.568Z,21.22
2017-06-20T22:38:43.779Z,21.13
2017-06-20T22:39:52.993Z,21.13
2017-06-20T22:41:01.569Z,21.11
2017-06-20T22:42:10.783Z,21.04
2017-06-20T22:43:19.683Z,21
2017-06-20T22:44:28.581Z,21
2017-06-20T22:45:37.214Z,20.96
2017-06-20T22:46:46.434Z,20.9
2017-06-20T22:47:55.333Z,20.86
2017-06-20T22:49:04.547Z,20.88
2017-06-20T22:50:13.449Z,20.83
2017-06-20T22:51:22.352Z,20.81
2017-06-20T22:52:31.246Z,20.81
2017-06-20T22:53:40.462Z,20.72
2017-06-20T22:54:49.040Z,20.72
2017-06-20T22:55:57.621Z,20.6
2017-06-20T22:57:06.523Z,20.6
2017-06-20T22:58:15.415Z,20.56
2017-06-20T22:59:24.623Z,20.61
2017-06-20T23:00:33.840Z,20.58
2017-06-20T23:01:42.770Z,20.61
2017-06-20T23:02:51.674Z,20.64
2017-06-20T23:04:00.249Z,20.57
2017-06-20T23:05:09.151Z,20.6
2017-06-20T23:06:18.044Z,20.51
2017-06-20T23:07:26.939Z,20.54
2017-06-20T23:08:35.832Z,20.49
2017-06-20T23:09:44.414Z,20.56
2017-06-20T23:10:53.627Z,20.4
2017-06-20T23:12:02.521Z,20.44
2017-06-20T23:13:11.415Z,20.38
2017-06-20T23:14:19.992Z,20.37
2017-06-20T23:15:29.200Z,20.23
2017-06-20T23:16:38.415Z,20.26
2017-06-20T23:17:47.316Z,20.19
2017-06-20T23:18:55.898Z,20.1
2017-06-20T23:20:04.480Z,20.15
2017-06-20T23:21:13.375Z,20.18
2017-06-20T23:22:22.910Z,20.22
2017-06-20T23:23:31.486Z,20.01
2017-06-20T23:24:40.383Z,20.04
2017-06-20T23:25:48.965Z,20.07
2017-06-20T23:26:57.857Z,20.05
2017-06-20T23:28:06.439Z,19.93
2017-06-20T23:29:15.337Z,19.93
2017-06-20T23:30:24.875Z,20
2017-06-20T23:31:33.458Z,19.98
2017-06-20T23:32:46.066Z,19.9
2017-06-20T23:33:54.963Z,19.9
2017-06-20T23:35:03.862Z,19.82
2017-06-20T23:36:12.460Z,19.78
2017-06-20T23:37:21.355Z,19.74
2017-06-20T23:38:29.938Z,19.72
2017-06-20T23:39:38.844Z,19.72
2017-06-20T23:40:47.742Z,19.6
2017-06-20T23:41:56.318Z,19.64
2017-06-20T23:43:04.897Z,19.71
2017-06-20T23:44:14.109Z,19.71
2017-06-20T23:45:22.688Z,19.61
2017-06-20T23:46:31.581Z,19.63
2017-06-20T23:47:40.477Z,19.6
2017-06-20T23:48:49.690Z,19.63
2017-06-20T23:49:58.268Z,19.65
2017-06-20T23:51:07.482Z,19.64
2017-06-20T23:52:16.692Z,19.57
2017-06-20T23:53:25.588Z,19.6
2017-06-20T23:54:34.484Z,19.52
2017-06-20T23:55:43.058Z,19.49
2017-06-20T23:56:51.954Z,19.47
2017-06-20T23:58:00.849Z,19.43
2017-06-20T23:59:09.425Z,19.49
